Time;durP1;ratioP1;P1;durP2;ratioP2;P2;SDS_P1;SDS_P2;PMS_P1;PMS_P2;Temp;Humidity;BMP_temperature;BMP_pressure;BME280_temperature;BME280_humidity;BME280_pressure;Samples;Min_cycle;Max_cycle;Signal;HPM_P1;HPM_P2
2021/12/09 00:01:02;;;;;;;28.27;13.90;;;;;;;0.66;100.00;100028.81;5118377;27;20068;-71
2021/12/09 00:03:31;;;;;;;31.85;14.55;;;;;;;0.64;100.00;100029.59;5118234;27;20047;-70
2021/12/09 00:05:58;;;;;;;30.65;14.25;;;;;;;0.67;100.00;100029.69;5125449;27;20462;-72
2021/12/09 00:08:26;;;;;;;30.67;13.93;;;;;;;0.66;100.00;100035.75;5122435;27;20031;-72
2021/12/09 00:10:56;;;;;;;28.27;13.77;;;;;;;0.71;100.00;100022.88;5124741;27;20471;-71
2021/12/09 00:13:23;;;;;;;29.48;13.70;;;;;;;0.68;100.00;100029.78;5122495;27;20055;-71
2021/12/09 00:15:49;;;;;;;30.17;13.63;;;;;;;0.65;100.00;100034.84;5124052;27;20045;-69
2021/12/09 00:18:16;;;;;;;28.20;13.73;;;;;;;0.68;100.00;100040.19;5123819;27;20111;-70
2021/12/09 00:20:42;;;;;;;32.03;13.80;;;;;;;0.65;100.00;100036.56;5123075;27;20062;-68
2021/12/09 00:23:08;;;;;;;30.17;13.60;;;;;;;0.63;100.00;100026.13;5124536;27;20558;-68
2021/12/09 00:25:35;;;;;;;28.90;13.88;;;;;;;0.60;100.00;100038.16;5121604;27;20046;-71
2021/12/09 00:28:00;;;;;;;29.35;13.82;;;;;;;0.59;100.00;100037.25;5125259;27;20035;-69
2021/12/09 00:30:26;;;;;;;29.20;14.23;;;;;;;0.53;100.00;100039.69;5121912;27;20015;-71
2021/12/09 00:32:51;;;;;;;30.23;14.27;;;;;;;0.58;100.00;100042.41;5124548;27;20077;-69
2021/12/09 00:35:18;;;;;;;30.27;14.10;;;;;;;0.55;100.00;100040.59;5122964;27;20458;-67
2021/12/09 00:37:58;;;;;;;28.75;13.85;;;;;;;0.53;100.00;100039.69;5123041;27;20088;-67
2021/12/09 00:40:24;;;;;;;29.48;13.90;;;;;;;0.57;100.00;100040.63;5122228;27;20035;-67
2021/12/09 00:42:49;;;;;;;28.45;13.98;;;;;;;0.62;100.00;100039.97;5123948;27;20019;-67
2021/12/09 00:45:15;;;;;;;29.08;13.38;;;;;;;0.58;100.00;100038.09;5123259;27;20078;-67
2021/12/09 00:47:41;;;;;;;28.23;13.48;;;;;;;0.63;100.00;100035.66;5122724;28;20027;-67
2021/12/09 00:50:07;;;;;;;30.30;13.90;;;;;;;0.63;100.00;100041.72;5124411;28;20026;-68
2021/12/09 00:52:32;;;;;;;27.80;13.77;;;;;;;0.65;100.00;100036.56;5121385;28;20114;-67
2021/12/09 00:54:59;;;;;;;27.65;13.23;;;;;;;0.72;100.00;100040.25;5124819;28;20030;-67
2021/12/09 00:57:26;;;;;;;29.23;13.55;;;;;;;0.69;100.00;100039.31;5121957;28;20386;-67
2021/12/09 00:59:51;;;;;;;28.77;13.57;;;;;;;0.73;100.00;100036.81;5124182;28;20087;-68
2021/12/09 01:02:17;;;;;;;27.55;13.80;;;;;;;0.68;100.00;100049.69;5123014;28;20027;-67
2021/12/09 01:04:45;;;;;;;31.85;14.70;;;;;;;0.68;100.00;100039.28;5122641;28;20019;-67
2021/12/09 01:07:11;;;;;;;31.00;13.88;;;;;;;0.66;100.00;100052.22;5123654;28;20047;-67
2021/12/09 01:09:36;;;;;;;29.10;13.50;;;;;;;0.64;100.00;100048.72;5122045;28;20054;-67
2021/12/09 01:12:03;;;;;;;28.77;13.73;;;;;;;0.60;100.00;100041.63;5124899;28;20019;-69
2021/12/09 01:14:29;;;;;;;30.38;14.25;;;;;;;0.56;100.00;100051.91;5117433;28;20417;-67
2021/12/09 01:16:54;;;;;;;28.13;13.70;;;;;;;0.62;100.00;100045.16;5124634;28;20083;-67
2021/12/09 01:19:20;;;;;;;30.00;13.70;;;;;;;0.58;100.00;100052.81;5122205;28;20473;-68
2021/12/09 01:21:45;;;;;;;29.58;14.00;;;;;;;0.66;100.00;100057.44;5122875;28;20024;-68
2021/12/09 01:24:11;;;;;;;29.90;13.65;;;;;;;0.60;100.00;100062.44;5123698;28;20114;-68
2021/12/09 01:26:36;;;;;;;27.60;13.57;;;;;;;0.60;100.00;100052.03;5121337;28;20043;-68
2021/12/09 01:29:12;;;;;;;30.50;13.82;;;;;;;0.53;100.00;100065.69;5124711;28;20078;-68
2021/12/09 01:31:39;;;;;;;28.55;13.75;;;;;;;0.51;100.00;100051.72;5118825;28;20024;-67
2021/12/09 01:34:05;;;;;;;29.27;14.57;;;;;;;0.48;100.00;100056.84;5124346;28;20477;-67
2021/12/09 01:36:32;;;;;;;30.30;14.07;;;;;;;0.43;100.00;100063.63;5121491;28;20036;-73
2021/12/09 01:38:58;;;;;;;31.02;14.23;;;;;;;0.47;100.00;100060.28;5128336;27;20023;-69
2021/12/09 01:41:24;;;;;;;28.85;14.77;;;;;;;0.43;100.00;100064.50;5125660;27;20082;-69
2021/12/09 01:43:50;;;;;;;28.80;14.13;;;;;;;0.38;100.00;100059.97;5127007;27;20043;-68
2021/12/09 01:46:20;;;;;;;33.33;15.38;;;;;;;0.31;100.00;100059.78;5126985;27;20027;-69
2021/12/09 01:48:47;;;;;;;30.55;14.48;;;;;;;0.38;100.00;100055.69;5126417;27;20085;-68
2021/12/09 01:51:13;;;;;;;31.73;14.63;;;;;;;0.37;100.00;100063.44;5126881;27;20053;-69
2021/12/09 01:53:39;;;;;;;31.52;14.45;;;;;;;0.33;100.00;100058.09;5125428;27;20530;-69
2021/12/09 01:56:08;;;;;;;29.13;14.38;;;;;;;0.28;100.00;100051.00;5127733;27;20062;-74
2021/12/09 01:58:34;;;;;;;29.33;14.13;;;;;;;0.25;100.00;100048.28;5124516;27;20035;-70
2021/12/09 02:01:00;;;;;;;29.45;14.38;;;;;;;0.17;100.00;100053.22;5128135;27;20027;-72
2021/12/09 02:03:26;;;;;;;31.50;15.27;;;;;;;0.13;100.00;100059.16;5124779;27;20031;-70
2021/12/09 02:05:53;;;;;;;30.63;15.05;;;;;;;0.06;100.00;100055.47;5126946;27;20023;-68
2021/12/09 02:08:18;;;;;;;30.73;14.85;;;;;;;0.07;100.00;100043.34;5125794;27;20030;-68
2021/12/09 02:10:46;;;;;;;31.65;15.20;;;;;;;0.02;100.00;100056.19;5125615;27;20023;-71
2021/12/09 02:13:12;;;;;;;29.73;15.23;;;;;;;0.03;100.00;100050.19;5126886;27;20034;-68
2021/12/09 02:15:39;;;;;;;29.35;15.07;;;;;;;-0.06;100.00;100047.25;5125157;27;20388;-72
2021/12/09 02:18:07;;;;;;;31.25;15.07;;;;;;;-0.11;100.00;100049.69;5127491;27;20473;-69
2021/12/09 02:20:35;;;;;;;31.15;15.88;;;;;;;-0.06;100.00;100045.53;5124086;27;20103;-67
2021/12/09 02:23:06;;;;;;;30.23;14.85;;;;;;;-0.04;100.00;100050.78;5120048;27;20484;-69
2021/12/09 02:25:31;;;;;;;32.72;15.50;;;;;;;-0.07;100.00;100048.09;5120602;27;20024;-68
2021/12/09 02:27:57;;;;;;;33.38;15.02;;;;;;;-0.04;100.00;100041.28;5127137;27;20232;-69
2021/12/09 02:30:22;;;;;;;32.80;15.57;;;;;;;-0.03;100.00;100042.16;5124905;27;20076;-68
2021/12/09 02:32:47;;;;;;;30.10;14.98;;;;;;;-0.05;100.00;100047.28;5125734;27;20053;-68
2021/12/09 02:35:13;;;;;;;32.38;15.23;;;;;;;-0.06;100.00;100047.25;5125928;27;20551;-69
2021/12/09 02:37:38;;;;;;;30.83;14.77;;;;;;;0.02;100.00;100045.81;5124404;27;20024;-69
2021/12/09 02:40:06;;;;;;;30.25;14.13;;;;;;;0.04;100.00;100045.84;5127105;27;20033;-68
2021/12/09 02:42:34;;;;;;;29.73;14.10;;;;;;;0.07;100.00;100045.94;5119851;27;20093;-69
2021/12/09 02:44:59;;;;;;;30.00;14.52;;;;;;;0.01;100.00;100044.03;5119533;27;20024;-68
2021/12/09 02:47:25;;;;;;;30.65;14.48;;;;;;;0.05;100.00;100045.03;5125970;27;20034;-69
2021/12/09 02:49:50;;;;;;;30.00;14.40;;;;;;;0.05;100.00;100051.09;5124879;27;20031;-68
2021/12/09 02:52:16;;;;;;;31.55;14.73;;;;;;;0.02;100.00;100044.94;5106898;27;20031;-68
2021/12/09 02:54:41;;;;;;;31.95;14.68;;;;;;;-0.03;100.00;100043.06;5125646;27;20148;-68
2021/12/09 02:57:08;;;;;;;32.00;14.75;;;;;;;-0.02;100.00;100047.41;5123930;27;20454;-69
2021/12/09 02:59:34;;;;;;;31.38;14.52;;;;;;;-0.01;100.00;100049.16;5127111;27;20031;-71
2021/12/09 03:02:01;;;;;;;30.40;14.00;;;;;;;-0.06;100.00;100057.63;5119110;27;20030;-69
2021/12/09 03:04:51;;;;;;;29.95;14.02;;;;;;;-0.09;100.00;100061.00;5126346;27;20026;-70
2021/12/09 03:07:27;;;;;;;28.83;14.05;;;;;;;-0.11;100.00;100054.00;5123324;27;20080;-70
2021/12/09 03:09:59;;;;;;;28.65;13.32;;;;;;;-0.16;100.00;100061.66;5124326;27;20032;-69
2021/12/09 03:12:30;;;;;;;29.60;13.70;;;;;;;-0.08;100.00;100060.19;5126071;27;20028;-70
2021/12/09 03:14:56;;;;;;;29.05;13.48;;;;;;;-0.05;100.00;100062.00;5123705;27;20140;-68
2021/12/09 03:17:22;;;;;;;29.80;13.52;;;;;;;-0.01;100.00;100071.69;5125319;27;20491;-70
2021/12/09 03:19:48;;;;;;;29.00;13.48;;;;;;;-0.03;100.00;100063.84;5124941;27;20035;-70
2021/12/09 03:22:14;;;;;;;30.33;13.30;;;;;;;-0.02;100.00;100073.38;5124076;27;20070;-68
2021/12/09 03:24:39;;;;;;;31.90;13.57;;;;;;;-0.05;100.00;100077.59;5125689;27;20023;-69
2021/12/09 03:27:06;;;;;;;32.85;13.13;;;;;;;-0.02;100.00;100086.38;5122666;27;20051;-69
2021/12/09 03:29:31;;;;;;;28.63;12.45;;;;;;;-0.06;100.00;100084.53;5126395;27;20175;-67
2021/12/09 03:32:01;;;;;;;30.35;13.23;;;;;;;-0.04;100.00;100089.78;5122985;27;20534;-68
2021/12/09 03:34:29;;;;;;;28.08;12.02;;;;;;;-0.05;100.00;100075.88;5125667;27;20492;-69
2021/12/09 03:36:57;;;;;;;27.33;12.23;;;;;;;-0.10;100.00;100074.84;5123111;27;20023;-68
2021/12/09 03:39:25;;;;;;;31.00;11.98;;;;;;;-0.08;100.00;100074.91;5125009;27;20051;-67
2021/12/09 03:41:53;;;;;;;27.40;11.75;;;;;;;-0.15;100.00;100084.19;5124185;27;20102;-67
2021/12/09 03:44:19;;;;;;;27.80;11.90;;;;;;;-0.17;100.00;100088.47;5124625;27;20072;-67
2021/12/09 03:46:45;;;;;;;30.13;12.60;;;;;;;-0.10;100.00;100087.84;5124541;27;20482;-67
2021/12/09 03:49:11;;;;;;;28.88;11.95;;;;;;;-0.15;100.00;100086.78;5123203;27;20030;-68
2021/12/09 03:51:37;;;;;;;29.38;11.68;;;;;;;-0.11;100.00;100099.06;5125647;27;20011;-67
2021/12/09 03:54:04;;;;;;;26.15;10.73;;;;;;;-0.03;100.00;100092.44;5122303;27;20035;-67
2021/12/09 03:56:31;;;;;;;27.38;11.27;;;;;;;-0.08;100.00;100101.75;5118173;27;20028;-67
2021/12/09 03:58:56;;;;;;;27.48;11.20;;;;;;;-0.11;100.00;100101.66;5124933;27;20027;-67
2021/12/09 04:01:21;;;;;;;26.45;10.85;;;;;;;-0.11;100.00;100106.84;5122949;27;20026;-68
2021/12/09 04:03:47;;;;;;;28.85;11.25;;;;;;;-0.15;100.00;100099.78;5123902;27;20031;-69
2021/12/09 04:06:12;;;;;;;26.75;11.05;;;;;;;-0.10;100.00;100098.25;5124424;27;20015;-68
2021/12/09 04:08:38;;;;;;;27.77;11.20;;;;;;;-0.10;100.00;100087.84;5122407;27;20028;-68
2021/12/09 04:11:03;;;;;;;28.27;10.85;;;;;;;-0.15;100.00;100089.38;5125598;27;20389;-67
2021/12/09 04:13:30;;;;;;;28.38;11.05;;;;;;;-0.20;100.00;100077.97;5122062;27;20110;-67
2021/12/09 04:15:57;;;;;;;26.48;10.18;;;;;;;-0.28;100.00;100071.59;5124765;27;20027;-67
2021/12/09 04:18:23;;;;;;;26.88;11.05;;;;;;;-0.27;100.00;100089.84;5104372;28;20180;-68
2021/12/09 04:20:49;;;;;;;28.30;11.23;;;;;;;-0.32;100.00;100096.59;5123754;27;20031;-67
2021/12/09 04:23:14;;;;;;;29.52;11.63;;;;;;;-0.28;100.00;100098.44;5124048;27;20110;-68
2021/12/09 04:25:40;;;;;;;29.88;10.90;;;;;;;-0.34;100.00;100089.56;5122575;27;20479;-68
2021/12/09 04:28:05;;;;;;;28.63;10.60;;;;;;;-0.28;100.00;100094.97;5125000;27;20050;-69
2021/12/09 04:30:32;;;;;;;28.45;10.93;;;;;;;-0.28;100.00;100093.25;5121551;27;20401;-68
2021/12/09 04:32:58;;;;;;;27.17;10.15;;;;;;;-0.31;100.00;100098.34;5124931;27;20027;-68
2021/12/09 04:35:23;;;;;;;28.80;10.60;;;;;;;-0.28;100.00;100102.75;5122347;27;20031;-68
2021/12/09 04:37:49;;;;;;;29.00;10.88;;;;;;;-0.37;100.00;100104.19;5124174;27;20024;-68
2021/12/09 04:40:16;;;;;;;26.00;10.52;;;;;;;-0.37;100.00;100104.19;5123880;27;20019;-67
2021/12/09 04:42:41;;;;;;;28.92;10.65;;;;;;;-0.42;100.00;100110.94;5122320;27;20035;-67
2021/12/09 04:45:08;;;;;;;26.40;10.30;;;;;;;-0.53;100.00;100110.53;5124974;27;20023;-67
2021/12/09 04:47:34;;;;;;;27.08;10.35;;;;;;;-0.47;100.00;100117.66;5121620;28;20031;-67
2021/12/09 04:49:59;;;;;;;28.05;10.30;;;;;;;-0.47;100.00;100109.88;5125067;28;20019;-67
2021/12/09 04:52:24;;;;;;;27.00;10.60;;;;;;;-0.48;100.00;100110.72;5122508;28;20496;-67
2021/12/09 04:54:50;;;;;;;27.63;10.40;;;;;;;-0.47;100.00;100115.06;5123785;28;20031;-67
2021/12/09 04:57:16;;;;;;;30.48;10.88;;;;;;;-0.47;100.00;100107.28;5123574;28;20055;-67
2021/12/09 04:59:42;;;;;;;25.42;10.57;;;;;;;-0.44;100.00;100101.31;5122463;28;20024;-67
2021/12/09 05:02:12;;;;;;;27.30;10.35;;;;;;;-0.48;100.00;100104.63;5124854;28;20510;-67
2021/12/09 05:04:38;;;;;;;27.00;10.05;;;;;;;-0.45;100.00;100110.84;5123078;28;20023;-68
2021/12/09 05:07:03;;;;;;;28.05;10.13;;;;;;;-0.51;100.00;100102.81;5126517;28;20489;-68
2021/12/09 05:09:29;;;;;;;28.55;10.40;;;;;;;-0.53;100.00;100102.72;5123207;28;20035;-67
2021/12/09 05:11:55;;;;;;;29.95;10.23;;;;;;;-0.53;100.00;100109.66;5140496;27;20023;-68
2021/12/09 05:14:22;;;;;;;29.50;10.80;;;;;;;-0.56;100.00;100113.00;5143178;27;20048;-68
2021/12/09 05:16:53;;;;;;;26.58;10.48;;;;;;;-0.51;100.00;100123.59;5145897;27;20087;-69
2021/12/09 05:19:19;;;;;;;25.70;10.30;;;;;;;-0.42;100.00;100123.06;5147937;27;20007;-69
2021/12/09 05:21:44;;;;;;;26.88;10.65;;;;;;;-0.45;100.00;100122.91;5147524;27;20025;-71
2021/12/09 05:24:11;;;;;;;28.27;10.70;;;;;;;-0.44;100.00;100127.28;5147925;27;20050;-70
2021/12/09 05:26:51;;;;;;;27.35;10.40;;;;;;;-0.31;100.00;100124.31;5145761;27;20022;-67
2021/12/09 05:29:17;;;;;;;25.63;10.35;;;;;;;-0.32;100.00;100129.44;5145039;27;20033;-68
2021/12/09 05:34:28;;;;;;;28.92;11.32;;;;;;;-0.29;100.00;100112.28;5126071;27;20058;-70
2021/12/09 05:36:53;;;;;;;28.60;10.73;;;;;;;-0.31;100.00;100111.31;5127589;27;20462;-68
2021/12/09 05:39:19;;;;;;;27.45;10.50;;;;;;;-0.30;100.00;100109.63;5126588;27;20019;-69
2021/12/09 05:41:46;;;;;;;27.75;10.02;;;;;;;-0.19;100.00;100126.47;5126346;27;20024;-68
2021/12/09 05:44:13;;;;;;;26.88;10.60;;;;;;;-0.23;100.00;100125.50;5127627;27;20023;-68
2021/12/09 05:46:41;;;;;;;27.23;10.30;;;;;;;-0.26;100.00;100133.16;5125055;27;20031;-68
2021/12/09 05:49:07;;;;;;;26.70;10.68;;;;;;;-0.27;100.00;100131.41;5128314;27;20416;-71
2021/12/09 05:51:33;;;;;;;28.25;10.57;;;;;;;-0.22;100.00;100137.66;5124669;27;20092;-68
2021/12/09 05:53:58;;;;;;;27.38;9.88;;;;;;;-0.24;100.00;100141.03;5127887;27;20080;-68
2021/12/09 05:56:24;;;;;;;29.15;10.38;;;;;;;-0.24;100.00;100146.22;5125718;27;20027;-68
2021/12/09 05:58:49;;;;;;;27.10;10.40;;;;;;;-0.28;100.00;100136.53;5126339;27;20023;-69
2021/12/09 06:01:16;;;;;;;27.27;10.63;;;;;;;-0.23;100.00;100137.59;5126797;27;20027;-68
2021/12/09 06:03:41;;;;;;;27.08;10.48;;;;;;;-0.30;100.00;100140.81;5125170;27;20546;-69
2021/12/09 06:06:07;;;;;;;28.73;11.27;;;;;;;-0.34;100.00;100138.91;5127909;27;20101;-68
2021/12/09 06:08:36;;;;;;;28.67;10.98;;;;;;;-0.35;100.00;100135.41;5124626;27;20027;-68
2021/12/09 06:11:03;;;;;;;25.95;10.15;;;;;;;-0.37;100.00;100140.56;5120348;27;20034;-68
2021/12/09 06:13:31;;;;;;;27.08;11.45;;;;;;;-0.36;100.00;100141.47;5127256;27;20521;-68
2021/12/09 06:15:57;;;;;;;26.73;11.20;;;;;;;-0.45;100.00;100142.00;5124852;27;20075;-69
2021/12/09 06:18:22;;;;;;;27.50;12.27;;;;;;;-0.49;100.00;100145.31;5126330;27;20096;-70
2021/12/09 06:20:48;;;;;;;29.65;12.00;;;;;;;-0.48;100.00;100141.88;5126175;27;20023;-67
2021/12/09 06:23:13;;;;;;;27.80;11.90;;;;;;;-0.43;100.00;100139.47;5124580;27;20027;-69
2021/12/09 06:25:38;;;;;;;31.50;12.43;;;;;;;-0.43;100.00;100131.66;5127151;27;20390;-67
2021/12/09 06:28:04;;;;;;;28.30;12.15;;;;;;;-0.43;100.00;100135.13;5123763;27;20052;-69
2021/12/09 06:30:29;;;;;;;34.13;11.95;;;;;;;-0.43;100.00;100124.75;5117191;27;20030;-67
2021/12/09 06:32:55;;;;;;;28.33;11.93;;;;;;;-0.49;100.00;100132.31;5118304;27;20081;-69
2021/12/09 06:35:21;;;;;;;27.65;12.38;;;;;;;-0.48;100.00;100139.28;5118028;27;20475;-67
2021/12/09 06:37:48;;;;;;;32.10;13.00;;;;;;;-0.51;100.00;100134.00;5117161;27;20031;-72
2021/12/09 06:40:16;;;;;;;28.63;11.73;;;;;;;-0.47;100.00;100143.63;5117313;27;20020;-72
2021/12/09 06:42:43;;;;;;;31.00;12.93;;;;;;;-0.50;100.00;100145.25;5126339;27;20516;-81
2021/12/09 06:45:09;;;;;;;31.42;13.02;;;;;;;-0.48;100.00;100152.28;5118130;27;20171;-75
2021/12/09 06:47:35;;;;;;;30.65;12.75;;;;;;;-0.50;100.00;100147.84;5121256;27;20160;-73
2021/12/09 06:50:00;;;;;;;29.58;12.35;;;;;;;-0.50;100.00;100143.53;5125476;27;20023;-73
2021/12/09 06:52:26;;;;;;;28.95;11.98;;;;;;;-0.49;100.00;100154.81;5121116;27;20020;-71
2021/12/09 06:54:51;;;;;;;30.80;12.43;;;;;;;-0.45;100.00;100152.38;5116495;27;20020;-71
2021/12/09 06:57:16;;;;;;;29.75;13.00;;;;;;;-0.54;100.00;100146.81;5121816;27;20047;-76
2021/12/09 06:59:42;;;;;;;30.20;12.80;;;;;;;-0.58;100.00;100156.22;5117966;27;20024;-76
2021/12/09 07:02:08;;;;;;;31.83;13.32;;;;;;;-0.53;100.00;100153.81;5116935;27;20015;-75
2021/12/09 07:04:34;;;;;;;29.65;12.48;;;;;;;-0.57;100.00;100157.09;5121825;27;20027;-74
2021/12/09 07:07:03;;;;;;;29.48;12.32;;;;;;;-0.58;100.00;100160.53;5123949;27;20024;-69
2021/12/09 07:09:29;;;;;;;29.35;12.30;;;;;;;-0.51;100.00;100162.56;5114822;27;20462;-67
2021/12/09 07:11:56;;;;;;;28.95;11.95;;;;;;;-0.53;100.00;100159.00;5117679;27;20016;-67
2021/12/09 07:14:22;;;;;;;28.40;12.23;;;;;;;-0.58;100.00;100164.00;5120852;27;20023;-68
2021/12/09 07:16:47;;;;;;;31.13;12.85;;;;;;;-0.58;100.00;100176.13;5117344;27;20515;-67
2021/12/09 07:19:12;;;;;;;27.77;11.95;;;;;;;-0.59;100.00;100169.16;5116523;27;20023;-67
2021/12/09 07:21:38;;;;;;;28.67;12.60;;;;;;;-0.61;100.00;100160.41;5116237;27;20072;-69
2021/12/09 07:24:04;;;;;;;28.08;11.73;;;;;;;-0.49;100.00;100166.06;5117760;27;20062;-67
2021/12/09 07:26:30;;;;;;;30.50;12.38;;;;;;;-0.37;100.00;100171.72;5120604;27;20030;-68
2021/12/09 07:28:56;;;;;;;29.52;12.38;;;;;;;-0.32;100.00;100163.22;5115122;27;20048;-67
2021/12/09 07:31:24;;;;;;;31.60;12.55;;;;;;;-0.33;100.00;100161.47;5118479;27;20530;-67
2021/12/09 07:33:50;;;;;;;29.88;12.07;;;;;;;-0.38;100.00;100167.38;5114872;27;20023;-69
2021/12/09 07:36:15;;;;;;;29.40;12.77;;;;;;;-0.36;100.00;100168.31;5112249;27;20024;-68
2021/12/09 07:38:41;;;;;;;28.65;12.88;;;;;;;-0.31;100.00;100171.06;5112955;27;20020;-67
2021/12/09 07:41:07;;;;;;;29.80;12.63;;;;;;;-0.40;100.00;100179.41;5116139;27;20494;-66
2021/12/09 07:43:33;;;;;;;30.10;13.18;;;;;;;-0.40;100.00;100184.59;5113907;27;20515;-67
2021/12/09 07:45:59;;;;;;;29.20;12.85;;;;;;;-0.41;100.00;100185.44;5114089;27;20015;-67
2021/12/09 07:48:24;;;;;;;30.58;12.82;;;;;;;-0.44;100.00;100181.84;5114943;27;20035;-67
2021/12/09 07:50:50;;;;;;;30.13;12.85;;;;;;;-0.47;100.00;100172.19;5113232;27;20075;-69
2021/12/09 07:53:17;;;;;;;30.40;13.48;;;;;;;-0.47;100.00;100177.41;5114647;27;20023;-67
2021/12/09 07:55:43;;;;;;;31.67;13.30;;;;;;;-0.48;100.00;100178.25;5115920;27;20121;-67
2021/12/09 07:58:09;;;;;;;31.08;13.43;;;;;;;-0.45;100.00;100172.25;5116193;27;20116;-68
2021/12/09 08:00:34;;;;;;;30.67;13.73;;;;;;;-0.44;100.00;100168.84;5116577;27;20106;-68
2021/12/09 08:03:01;;;;;;;31.08;13.38;;;;;;;-0.40;100.00;100176.81;5115465;27;20055;-69
2021/12/09 08:05:29;;;;;;;28.98;13.10;;;;;;;-0.39;100.00;100180.31;5117016;27;20032;-68
2021/12/09 08:07:54;;;;;;;31.55;13.23;;;;;;;-0.32;100.00;100184.91;5111367;28;20050;-69
2021/12/09 08:10:22;;;;;;;30.45;12.95;;;;;;;-0.26;100.00;100194.63;5114518;27;20489;-67
2021/12/09 08:12:48;;;;;;;28.80;12.65;;;;;;;-0.11;100.00;100195.19;5117324;27;20032;-67
2021/12/09 08:15:15;;;;;;;30.67;13.15;;;;;;;0.01;100.00;100205.16;5116056;27;20035;-68
2021/12/09 08:20:11;;;;;;;31.50;11.98;;;;;;;0.28;100.00;100209.63;5117969;27;20551;-68
2021/12/09 08:22:37;;;;;;;27.27;11.55;;;;;;;0.37;100.00;100209.06;5118551;27;20053;-68
2021/12/09 08:25:07;;;;;;;28.52;11.00;;;;;;;0.45;100.00;100205.88;5114665;27;20019;-69
2021/12/09 08:27:33;;;;;;;27.77;10.73;;;;;;;0.49;100.00;100207.75;5113730;28;20173;-69
2021/12/09 08:30:04;;;;;;;25.92;10.80;;;;;;;0.57;100.00;100194.13;5115955;27;20047;-67
2021/12/09 08:32:30;;;;;;;27.65;11.13;;;;;;;0.57;100.00;100199.31;5121517;27;20118;-68
2021/12/09 08:34:56;;;;;;;27.60;11.07;;;;;;;0.62;100.00;100197.78;5118283;27;20073;-68
2021/12/09 08:37:21;;;;;;;25.85;10.65;;;;;;;0.68;100.00;100198.88;5115408;27;20055;-69
2021/12/09 08:39:47;;;;;;;27.38;11.82;;;;;;;0.69;100.00;100197.16;5114361;27;20108;-69
2021/12/09 08:42:14;;;;;;;28.17;10.98;;;;;;;0.74;100.00;100194.69;5114966;27;20053;-68
2021/12/09 08:44:39;;;;;;;26.25;10.68;;;;;;;0.75;100.00;100197.34;5113246;27;20034;-68
2021/12/09 08:47:05;;;;;;;26.98;10.88;;;;;;;0.80;100.00;100207.91;5115369;27;20043;-68
2021/12/09 08:49:30;;;;;;;25.10;10.48;;;;;;;0.85;100.00;100202.03;5119718;28;20052;-68
2021/12/09 08:51:56;;;;;;;26.23;10.85;;;;;;;0.88;100.00;100202.97;5115209;28;20445;-69
2021/12/09 08:54:21;;;;;;;26.60;10.35;;;;;;;0.94;100.00;100201.44;5116444;28;20031;-68
2021/12/09 08:56:51;;;;;;;24.77;10.73;;;;;;;0.94;100.00;100211.88;5113965;28;20039;-68
2021/12/09 08:59:21;;;;;;;26.88;11.10;;;;;;;0.98;100.00;100200.72;5114939;28;20072;-69
2021/12/09 09:01:47;;;;;;;27.95;11.02;;;;;;;1.00;100.00;100205.97;5113603;28;20031;-69
2021/12/09 09:04:13;;;;;;;27.40;11.10;;;;;;;1.03;100.00;100204.38;5114190;28;20364;-68
2021/12/09 09:06:52;;;;;;;27.27;10.63;;;;;;;1.14;100.00;100217.72;5116068;28;20034;-69
2021/12/09 09:09:18;;;;;;;28.73;11.20;;;;;;;1.18;100.00;100203.97;5122173;28;20059;-68
2021/12/09 09:11:43;;;;;;;26.80;11.27;;;;;;;1.20;100.00;100210.09;5122775;28;20062;-67
2021/12/09 09:14:09;;;;;;;28.92;11.35;;;;;;;1.27;100.00;100207.69;5122045;28;20063;-67
2021/12/09 09:16:34;;;;;;;26.23;10.43;;;;;;;1.31;100.00;100207.88;5123984;28;20512;-68
2021/12/09 09:18:59;;;;;;;29.40;11.43;;;;;;;1.34;100.00;100202.75;5121063;28;20084;-67
2021/12/09 09:21:25;;;;;;;27.17;11.40;;;;;;;1.44;100.00;100205.63;5124162;28;20470;-69
2021/12/09 09:23:51;;;;;;;27.90;11.65;;;;;;;1.47;100.00;100209.22;5122189;28;20042;-67
2021/12/09 09:26:17;;;;;;;28.25;11.35;;;;;;;1.55;100.00;100202.50;5123515;28;20024;-72
2021/12/09 09:28:43;;;;;;;27.33;11.25;;;;;;;1.59;100.00;100203.50;5122875;28;20041;-70
2021/12/09 09:31:09;;;;;;;26.67;10.90;;;;;;;1.65;100.00;100201.09;5122250;28;20497;-72
2021/12/09 09:33:34;;;;;;;27.35;11.40;;;;;;;1.65;100.00;100211.50;5115498;28;20020;-72
2021/12/09 09:36:00;;;;;;;26.75;11.60;;;;;;;1.59;100.00;100206.13;5116087;28;20118;-72
2021/12/09 09:38:26;;;;;;;26.38;11.05;;;;;;;1.62;100.00;100216.63;5115533;28;20023;-74
2021/12/09 09:41:08;;;;;;;28.73;11.85;;;;;;;1.69;100.00;100215.97;5113512;28;20065;-68
2021/12/09 09:46:17;;;;;;;27.05;11.38;;;;;;;1.78;100.00;100227.50;5115039;28;20050;-68
2021/12/09 09:48:46;;;;;;;27.75;12.60;;;;;;;1.74;100.00;100219.59;5114206;28;20466;-69
2021/12/09 09:51:12;;;;;;;28.20;11.70;;;;;;;1.76;100.00;100223.97;5116808;28;20024;-68
2021/12/09 09:53:41;;;;;;;26.90;11.75;;;;;;;1.81;100.00;100222.41;5118603;28;20098;-69
2021/12/09 09:56:13;;;;;;;29.98;13.02;;;;;;;1.78;100.00;100231.00;5116588;28;20032;-68
2021/12/09 09:58:41;;;;;;;27.63;11.73;;;;;;;1.78;100.00;100243.13;5121635;27;20024;-69
2021/12/09 10:01:07;;;;;;;25.92;12.05;;;;;;;1.83;100.00;100225.94;5119462;27;20032;-70
2021/12/09 10:03:41;;;;;;;29.08;13.20;;;;;;;1.90;100.00;100226.16;5115567;28;20463;-70
2021/12/09 10:06:07;;;;;;;27.85;13.48;;;;;;;1.98;100.00;100231.59;5122908;27;20024;-72
2021/12/09 10:08:33;;;;;;;26.42;11.65;;;;;;;2.08;100.00;100228.44;5118750;27;20019;-72
2021/12/09 10:10:58;;;;;;;27.88;12.82;;;;;;;2.14;100.00;100219.00;5123126;27;20142;-71
2021/12/09 10:13:29;;;;;;;29.60;13.07;;;;;;;2.19;100.00;100222.63;5124412;27;20062;-70
2021/12/09 10:15:55;;;;;;;24.80;12.00;;;;;;;2.26;100.00;100214.13;5126279;27;20085;-69
2021/12/09 10:18:44;;;;;;;28.40;12.82;;;;;;;2.46;100.00;100221.63;5127791;27;20031;-71
2021/12/09 10:21:12;;;;;;;26.80;12.45;;;;;;;2.34;100.00;100210.00;5123037;27;20019;-73
2021/12/09 10:23:45;;;;;;;25.73;12.25;;;;;;;2.40;100.00;100210.19;5128963;27;20031;-72
2021/12/09 10:26:23;;;;;;;26.38;12.75;;;;;;;2.55;100.00;100212.31;5120207;27;20050;-72
2021/12/09 10:28:53;;;;;;;28.83;13.27;;;;;;;2.64;100.00;100196.03;5121731;27;20459;-71
2021/12/09 10:31:23;;;;;;;26.73;12.38;;;;;;;2.74;100.00;100190.19;5126829;27;20023;-71
2021/12/09 10:34:35;;;;;;;25.85;12.18;;;;;;;2.88;100.00;100197.50;5124898;27;20072;-70
2021/12/09 10:37:03;;;;;;;27.08;12.20;;;;;;;2.71;100.00;100195.34;5022813;28;20626;-71
2021/12/09 10:39:30;;;;;;;25.95;12.07;;;;;;;2.66;100.00;100203.88;5022404;28;20185;-73
2021/12/09 10:41:58;;;;;;;26.60;13.02;;;;;;;2.62;100.00;100195.09;5010920;28;20141;-71
2021/12/09 10:45:04;;;;;;;25.10;12.00;;;;;;;2.70;100.00;100196.19;5014007;28;20302;-71
2021/12/09 10:50:17;;;;;;;26.48;12.32;;;;;;;2.58;100.00;100214.13;4957333;28;20037;-72
2021/12/09 10:52:50;;;;;;;26.33;12.48;;;;;;;2.54;100.00;100212.28;4962954;28;20561;-67
2021/12/09 10:55:34;;;;;;;28.55;13.02;;;;;;;2.60;100.00;100208.09;4954480;28;20384;-74
2021/12/09 10:58:08;;;;;;;25.75;13.13;;;;;;;2.64;100.00;100209.06;4955463;28;20035;-73
2021/12/09 11:00:45;;;;;;;25.42;12.55;;;;;;;2.67;100.00;100209.16;4955475;28;20126;-68
2021/12/09 11:03:14;;;;;;;24.63;12.43;;;;;;;2.69;100.00;100211.78;4954043;28;20127;-67
2021/12/09 11:05:51;;;;;;;26.52;13.00;;;;;;;2.66;100.00;100214.34;4955416;28;20035;-68
2021/12/09 11:08:44;;;;;;;26.65;13.23;;;;;;;2.72;100.00;100207.56;4956071;28;20062;-69
2021/12/09 11:11:18;;;;;;;25.98;13.13;;;;;;;2.73;100.00;100201.47;5005036;28;20041;-69
2021/12/09 11:13:54;;;;;;;27.15;13.45;;;;;;;2.74;100.00;100200.63;5034071;28;20044;-69
2021/12/09 11:16:41;;;;;;;26.52;14.05;;;;;;;2.81;100.00;100192.94;5033883;28;20033;-69